Time;durP1;ratioP1;P1;durP2;ratioP2;P2;SDS_P1;SDS_P2;PMS_P1;PMS_P2;Temp;Humidity;BMP_temperature;BMP_pressure;BME280_temperature;BME280_humidity;BME280_pressure;Samples;Min_cycle;Max_cycle;Signal;HPM_P1;HPM_P2
2022/04/25 00:02:17;;;;;;;1.77;0.80;;;23.10;44.10;;;;;;5002042;28;20096;-42
2022/04/25 00:04:43;;;;;;;1.88;0.80;;;23.10;44.10;;;;;;5001708;28;20631;-43
2022/04/25 00:07:09;;;;;;;2.20;0.73;;;23.10;44.20;;;;;;5001611;28;20092;-42
2022/04/25 00:09:35;;;;;;;1.60;0.90;;;23.10;44.10;;;;;;5002141;28;20437;-42
2022/04/25 00:12:02;;;;;;;1.20;0.57;;;23.10;44.10;;;;;;4999862;28;20069;-42
2022/04/25 00:14:28;;;;;;;1.60;0.77;;;23.10;44.10;;;;;;4985583;28;20160;-42
2022/04/25 00:16:56;;;;;;;2.22;0.70;;;23.10;44.10;;;;;;5001402;28;20509;-43
2022/04/25 00:19:22;;;;;;;1.27;0.57;;;23.10;44.10;;;;;;5001143;28;20033;-42
2022/04/25 00:21:48;;;;;;;2.10;0.90;;;23.10;44.00;;;;;;5001101;28;20030;-42
2022/04/25 00:24:14;;;;;;;1.92;0.70;;;23.10;44.10;;;;;;5001534;28;20044;-42
2022/04/25 00:26:40;;;;;;;1.15;0.50;;;23.10;44.80;;;;;;5001694;28;20101;-43
2022/04/25 00:29:05;;;;;;;1.50;0.77;;;23.00;43.90;;;;;;5001224;28;20022;-42
2022/04/25 00:31:31;;;;;;;1.80;0.88;;;23.00;43.90;;;;;;5000411;28;20091;-42
2022/04/25 00:33:57;;;;;;;1.20;0.70;;;23.10;44.00;;;;;;5001389;28;20508;-43
2022/04/25 00:36:22;;;;;;;1.52;0.70;;;23.00;43.90;;;;;;5000730;28;20121;-43
2022/04/25 00:38:48;;;;;;;1.02;0.60;;;23.00;44.00;;;;;;5001482;28;20110;-42
2022/04/25 00:41:14;;;;;;;0.90;0.50;;;23.00;43.90;;;;;;5000738;28;20761;-43
2022/04/25 00:43:40;;;;;;;0.95;0.57;;;23.00;44.00;;;;;;5001625;28;20540;-43
2022/04/25 00:46:06;;;;;;;1.35;0.68;;;23.00;44.00;;;;;;5001111;28;20729;-42
2022/04/25 00:48:32;;;;;;;1.33;0.60;;;23.00;44.70;;;;;;5000616;28;20018;-43
2022/04/25 00:50:58;;;;;;;1.27;0.57;;;23.00;44.00;;;;;;5000578;28;20109;-42
2022/04/25 00:53:23;;;;;;;1.67;0.60;;;23.00;43.90;;;;;;4999604;28;20650;-43
2022/04/25 00:55:49;;;;;;;2.60;0.90;;;23.00;43.90;;;;;;5001504;28;20038;-42
2022/04/25 00:58:15;;;;;;;1.65;0.80;;;23.00;43.90;;;;;;5000369;28;20037;-43
2022/04/25 01:00:41;;;;;;;1.48;0.50;;;23.00;43.80;;;;;;5000030;28;20530;-42
2022/04/25 01:03:07;;;;;;;1.67;0.63;;;23.00;43.90;;;;;;5001093;28;20026;-43
2022/04/25 01:05:33;;;;;;;1.90;0.65;;;23.00;43.80;;;;;;5000427;28;20736;-43
2022/04/25 01:08:01;;;;;;;0.90;0.40;;;23.00;43.80;;;;;;5000454;28;20076;-42
2022/04/25 01:10:27;;;;;;;1.45;0.60;;;23.00;43.80;;;;;;5000436;28;20059;-42
2022/04/25 01:12:53;;;;;;;2.83;0.80;;;23.00;43.80;;;;;;4999203;28;20026;-43
2022/04/25 01:15:19;;;;;;;1.17;0.60;;;23.00;43.80;;;;;;4989472;28;20034;-43
2022/04/25 01:17:45;;;;;;;1.63;0.80;;;23.00;43.80;;;;;;5000200;28;20484;-43
2022/04/25 01:20:10;;;;;;;1.20;0.60;;;23.00;43.80;;;;;;5000401;28;20040;-42
2022/04/25 01:22:42;;;;;;;1.23;0.60;;;22.90;43.90;;;;;;5000314;28;20049;-43
2022/04/25 01:27:55;;;;;;;1.33;0.60;;;22.90;43.90;;;;;;4959284;28;20121;-42
2022/04/25 01:30:21;;;;;;;0.88;0.47;;;22.90;44.60;;;;;;4985635;28;20113;-43
2022/04/25 01:32:47;;;;;;;1.20;0.55;;;22.90;43.90;;;;;;5000288;28;20033;-42
2022/04/25 01:35:13;;;;;;;1.35;0.65;;;22.90;43.80;;;;;;5000667;28;20401;-42
2022/04/25 01:37:38;;;;;;;1.10;0.50;;;22.90;43.80;;;;;;5000506;28;20026;-42
2022/04/25 01:40:05;;;;;;;0.68;0.32;;;22.90;43.80;;;;;;5000166;28;20049;-43
2022/04/25 01:42:31;;;;;;;0.90;0.43;;;22.90;43.80;;;;;;4999384;28;20029;-43
2022/04/25 01:44:56;;;;;;;0.73;0.50;;;22.90;43.90;;;;;;4999286;28;20025;-42
2022/04/25 01:47:22;;;;;;;2.15;0.50;;;22.90;43.90;;;;;;5000351;28;20706;-42
2022/04/25 01:49:48;;;;;;;0.80;0.50;;;22.90;43.80;;;;;;5000515;28;20026;-42
2022/04/25 01:52:20;;;;;;;1.48;0.60;;;22.90;43.70;;;;;;4999795;28;20098;-42
2022/04/25 01:54:47;;;;;;;1.80;0.50;;;22.80;43.70;;;;;;4999821;28;20030;-43
2022/04/25 01:57:13;;;;;;;0.88;0.50;;;22.80;43.70;;;;;;4982030;28;20026;-43
2022/04/25 01:59:39;;;;;;;1.60;0.55;;;22.80;43.60;;;;;;4998929;28;20394;-42
2022/04/25 02:02:05;;;;;;;0.90;0.40;;;22.80;43.60;;;;;;4999225;28;20088;-43
2022/04/25 02:04:31;;;;;;;1.27;0.70;;;22.80;43.60;;;;;;4998903;28;20030;-42
2022/04/25 02:06:57;;;;;;;1.08;0.50;;;22.80;43.60;;;;;;4999432;28;20658;-42
2022/04/25 02:09:23;;;;;;;0.98;0.40;;;22.80;43.70;;;;;;4995274;28;20022;-42
2022/04/25 02:11:49;;;;;;;0.85;0.40;;;22.80;43.60;;;;;;4998631;28;20401;-42
2022/04/25 02:14:16;;;;;;;0.73;0.35;;;22.80;43.70;;;;;;4994772;28;20086;-43
2022/04/25 02:16:41;;;;;;;1.05;0.50;;;22.80;43.70;;;;;;4995044;28;20068;-42
2022/04/25 02:19:08;;;;;;;0.85;0.40;;;22.80;43.70;;;;;;4999284;28;20437;-42
2022/04/25 02:21:33;;;;;;;0.77;0.40;;;22.80;43.60;;;;;;4999141;28;20225;-42
2022/04/25 02:23:59;;;;;;;0.40;0.20;;;22.70;43.60;;;;;;4999536;28;20024;-43
2022/04/25 02:26:25;;;;;;;0.75;0.28;;;22.80;43.60;;;;;;4999526;28;20026;-42
2022/04/25 02:28:54;;;;;;;0.50;0.30;;;22.80;43.60;;;;;;4999002;28;20551;-42
2022/04/25 02:31:20;;;;;;;0.93;0.47;;;22.80;43.60;;;;;;4997808;28;20036;-43
2022/04/25 02:33:46;;;;;;;0.80;0.40;;;22.70;43.60;;;;;;4999726;28;20149;-42
2022/04/25 02:36:13;;;;;;;1.08;0.50;;;22.80;43.70;;;;;;4999172;28;20106;-43
2022/04/25 02:38:40;;;;;;;0.90;0.43;;;22.80;43.50;;;;;;4999268;28;20034;-43
2022/04/25 02:41:06;;;;;;;0.73;0.32;;;22.80;43.50;;;;;;4998798;28;20575;-43
2022/04/25 02:43:42;;;;;;;0.75;0.30;;;22.80;44.20;;;;;;4998706;28;20014;-43
2022/04/25 02:46:10;;;;;;;1.45;0.63;;;22.70;43.50;;;;;;4999043;28;20036;-43
2022/04/25 02:48:37;;;;;;;0.68;0.30;;;22.70;43.60;;;;;;4998942;28;20097;-42
2022/04/25 02:51:04;;;;;;;1.75;0.43;;;22.70;43.50;;;;;;4999067;28;20033;-43
2022/04/25 02:53:30;;;;;;;0.60;0.40;;;22.70;43.50;;;;;;4998443;28;20030;-46
2022/04/25 02:55:57;;;;;;;0.47;0.30;;;22.70;43.60;;;;;;4998922;28;20030;-43
2022/04/25 02:58:23;;;;;;;1.33;0.30;;;22.70;43.60;;;;;;4980926;28;20130;-42
2022/04/25 03:04:00;;;;;;;1.52;0.40;;;22.80;43.60;;;;;;4990277;28;20096;-43
2022/04/25 03:06:25;;;;;;;1.13;0.20;;;22.70;43.60;;;;;;4995067;28;20057;-45
2022/04/25 03:08:51;;;;;;;0.82;0.35;;;22.70;43.50;;;;;;5000202;28;20109;-44
2022/04/25 03:11:17;;;;;;;0.55;0.25;;;22.70;43.50;;;;;;4997786;28;20585;-44
2022/04/25 03:13:43;;;;;;;0.90;0.40;;;22.70;43.50;;;;;;4999055;28;20168;-44
2022/04/25 03:16:09;;;;;;;0.43;0.20;;;22.70;43.50;;;;;;4995782;28;20061;-44
2022/04/25 03:18:35;;;;;;;0.50;0.28;;;22.70;43.40;;;;;;4999051;28;20429;-43
2022/04/25 03:21:01;;;;;;;0.52;0.35;;;22.70;43.40;;;;;;4998668;28;20133;-45
2022/04/25 03:23:28;;;;;;;0.85;0.35;;;22.70;43.40;;;;;;4998797;28;20141;-44
2022/04/25 03:25:54;;;;;;;0.77;0.40;;;22.70;43.40;;;;;;4999285;28;20030;-43
2022/04/25 03:28:20;;;;;;;0.63;0.25;;;22.70;43.40;;;;;;4998565;28;20034;-45
2022/04/25 03:30:46;;;;;;;0.65;0.40;;;22.70;43.30;;;;;;4998369;28;20582;-44
2022/04/25 03:33:12;;;;;;;0.65;0.25;;;22.70;43.30;;;;;;4999079;28;20030;-44
2022/04/25 03:35:40;;;;;;;0.50;0.22;;;22.70;43.50;;;;;;4999061;28;20120;-44
2022/04/25 03:38:06;;;;;;;0.80;0.32;;;22.70;43.30;;;;;;4998789;28;20030;-44
2022/04/25 03:40:34;;;;;;;0.65;0.20;;;22.60;43.20;;;;;;4993904;28;20030;-44
2022/04/25 03:43:00;;;;;;;0.65;0.30;;;22.70;43.40;;;;;;4996952;28;20018;-44
2022/04/25 03:45:26;;;;;;;0.55;0.38;;;22.60;43.30;;;;;;4998609;28;20652;-44
2022/04/25 03:47:53;;;;;;;0.60;0.30;;;22.60;43.20;;;;;;4999302;28;20025;-44
2022/04/25 03:50:19;;;;;;;0.90;0.25;;;22.60;43.30;;;;;;4999010;28;20022;-42
2022/04/25 03:52:45;;;;;;;1.10;0.20;;;22.60;43.20;;;;;;4998723;28;20075;-44
2022/04/25 03:58:01;;;;;;;0.47;0.28;;;22.60;43.20;;;;;;4998860;28;20560;-44
2022/04/25 04:00:27;;;;;;;0.30;0.20;;;22.60;43.10;;;;;;4997880;28;20038;-45
2022/04/25 04:02:53;;;;;;;0.60;0.30;;;22.60;43.10;;;;;;4998460;28;20022;-44
2022/04/25 04:05:20;;;;;;;0.28;0.20;;;22.60;43.10;;;;;;4998542;28;20022;-44
2022/04/25 04:07:48;;;;;;;0.73;0.30;;;22.60;43.10;;;;;;4999103;28;20030;-45
2022/04/25 04:10:14;;;;;;;0.90;0.30;;;22.60;43.10;;;;;;4998801;28;20482;-45
2022/04/25 04:12:40;;;;;;;0.40;0.22;;;22.60;43.10;;;;;;4998830;28;20034;-44
2022/04/25 04:15:06;;;;;;;0.50;0.20;;;22.60;43.10;;;;;;4996481;28;20029;-44
2022/04/25 04:17:34;;;;;;;1.10;0.47;;;22.60;43.10;;;;;;4994575;28;20026;-43
2022/04/25 04:20:00;;;;;;;0.50;0.20;;;22.60;43.10;;;;;;4998517;28;20011;-44
2022/04/25 04:22:30;;;;;;;0.60;0.20;;;22.60;43.10;;;;;;4997611;28;20033;-44
2022/04/25 04:25:05;;;;;;;0.28;0.13;;;22.60;43.20;;;;;;4998192;28;20037;-44
2022/04/25 04:27:33;;;;;;;0.57;0.25;;;22.60;43.20;;;;;;4994529;28;20019;-44
2022/04/25 04:30:06;;;;;;;0.40;0.20;;;22.60;43.30;;;;;;4982816;28;20030;-45
2022/04/25 04:32:32;;;;;;;0.70;0.40;;;22.60;43.50;;;;;;5000346;28;20062;-44
2022/04/25 04:34:58;;;;;;;0.40;0.20;;;22.60;43.60;;;;;;5002242;28;20397;-42
2022/04/25 04:37:25;;;;;;;0.68;0.30;;;22.70;43.60;;;;;;5001981;28;20026;-45
2022/04/25 04:40:28;;;;;;;0.40;0.20;;;22.70;43.60;;;;;;5001881;28;20038;-44
2022/04/25 04:42:41;;;;;;;0.20;0.20;;;22.70;43.50;;;;;;5000933;28;20042;-45
2022/04/25 04:45:07;;;;;;;1.25;0.40;;;22.80;43.50;;;;;;5002103;28;20036;-44
2022/04/25 04:47:38;;;;;;;0.70;0.25;;;22.80;43.40;;;;;;5001703;28;20037;-44
2022/04/25 04:50:05;;;;;;;1.67;0.40;;;22.90;43.50;;;;;;4996071;28;20068;-44
2022/04/25 04:52:31;;;;;;;0.52;0.20;;;23.00;43.40;;;;;;4981193;28;20026;-45
2022/04/25 04:54:57;;;;;;;0.50;0.28;;;23.00;43.30;;;;;;4991327;28;20022;-44
2022/04/25 04:57:22;;;;;;;1.20;0.28;;;23.00;43.20;;;;;;5007683;28;20104;-44
2022/04/25 04:59:48;;;;;;;1.25;0.30;;;23.00;43.10;;;;;;5010869;28;20251;-44
2022/04/25 05:02:16;;;;;;;0.88;0.35;;;23.10;43.10;;;;;;5009251;28;20203;-43
2022/04/25 05:04:43;;;;;;;1.05;0.38;;;23.10;42.90;;;;;;5010841;28;20069;-43
2022/04/25 05:07:09;;;;;;;0.80;0.20;;;23.20;42.80;;;;;;5010583;28;20076;-45
2022/04/25 05:09:35;;;;;;;0.60;0.20;;;23.20;42.60;;;;;;5010376;28;20408;-44
2022/04/25 05:12:01;;;;;;;1.52;0.60;;;23.20;43.00;;;;;;5008488;28;20025;-44
2022/04/25 05:14:26;;;;;;;2.58;0.50;;;23.30;43.30;;;;;;5009064;28;20045;-44
2022/04/25 05:16:52;;;;;;;2.97;0.50;;;23.30;43.60;;;;;;5009651;28;20064;-45
2022/04/25 05:19:18;;;;;;;1.92;0.30;;;23.40;44.00;;;;;;5012392;28;20185;-44
2022/04/25 05:21:44;;;;;;;1.67;0.40;;;23.40;43.90;;;;;;5019141;28;20049;-44
2022/04/25 05:24:09;;;;;;;2.58;0.28;;;23.40;43.80;;;;;;5019345;28;20393;-44
2022/04/25 05:26:35;;;;;;;1.70;0.30;;;23.50;43.80;;;;;;5019526;28;20057;-47
2022/04/25 05:29:01;;;;;;;1.73;0.35;;;23.50;43.70;;;;;;5000628;28;20231;-45
2022/04/25 05:31:27;;;;;;;1.00;0.28;;;23.60;43.70;;;;;;4992646;28;20077;-44
2022/04/25 05:33:52;;;;;;;0.50;0.15;;;23.60;43.40;;;;;;4990632;28;20033;-43
2022/04/25 05:36:18;;;;;;;0.98;0.10;;;23.60;43.30;;;;;;4989765;28;20027;-44
2022/04/25 05:38:43;;;;;;;0.90;0.30;;;23.70;43.20;;;;;;4988599;28;20485;-45
2022/04/25 05:41:10;;;;;;;1.75;0.50;;;23.70;43.00;;;;;;4996899;28;20034;-46
2022/04/25 05:43:39;;;;;;;1.17;0.30;;;23.70;42.90;;;;;;5000270;28;20123;-42
2022/04/25 05:46:06;;;;;;;0.85;0.30;;;23.70;42.80;;;;;;5011854;28;20242;-42
2022/04/25 05:54:01;;;;;;;0.30;0.20;;;23.70;42.60;;;;;;5009146;28;20159;-43
2022/04/25 05:56:27;;;;;;;1.08;0.20;;;23.70;42.60;;;;;;5009152;28;20022;-43
2022/04/25 05:58:53;;;;;;;6.03;1.45;;;23.70;42.70;;;;;;5008955;28;20626;-43
2022/04/25 06:01:19;;;;;;;13.93;3.65;;;23.70;42.90;;;;;;5007358;28;20057;-42
2022/04/25 06:03:45;;;;;;;16.85;4.43;;;23.70;42.90;;;;;;5009227;28;20026;-43
2022/04/25 06:06:10;;;;;;;17.48;5.65;;;23.70;43.00;;;;;;5009296;28;20026;-42
2022/04/25 06:08:39;;;;;;;18.42;5.40;;;23.70;43.00;;;;;;5009305;28;20025;-42
2022/04/25 06:11:04;;;;;;;16.85;5.28;;;23.70;42.90;;;;;;5008117;28;20744;-45
2022/04/25 06:13:30;;;;;;;17.48;5.65;;;23.70;43.30;;;;;;5008018;28;20032;-43
2022/04/25 06:15:56;;;;;;;15.98;4.68;;;23.70;43.30;;;;;;5008696;28;20029;-44
2022/04/25 06:18:22;;;;;;;14.27;4.82;;;23.70;43.10;;;;;;5008574;28;20429;-43
2022/04/25 06:20:50;;;;;;;11.32;3.97;;;23.70;42.90;;;;;;5008356;28;20582;-43
2022/04/25 06:23:16;;;;;;;15.60;3.80;;;23.70;42.90;;;;;;5008800;28;20075;-43
2022/04/25 06:25:41;;;;;;;11.65;4.15;;;23.70;42.90;;;;;;5008601;28;20577;-44
2022/04/25 06:28:07;;;;;;;11.77;3.83;;;23.70;43.00;;;;;;5008838;28;20017;-44
2022/04/25 06:30:33;;;;;;;9.98;3.63;;;23.70;42.90;;;;;;5004344;28;20370;-44
2022/04/25 06:33:02;;;;;;;10.43;3.80;;;23.70;42.90;;;;;;4992601;28;20019;-46
2022/04/25 06:35:28;;;;;;;7.47;2.95;;;23.70;43.40;;;;;;4993850;28;20022;-43
2022/04/25 06:37:54;;;;;;;9.20;2.67;;;23.70;43.60;;;;;;4999556;28;20025;-43
2022/04/25 06:40:21;;;;;;;12.55;2.63;;;23.70;43.30;;;;;;4999557;28;20014;-42
2022/04/25 06:42:47;;;;;;;7.38;2.22;;;23.70;43.10;;;;;;4998728;28;20545;-42
2022/04/25 06:45:14;;;;;;;6.15;1.88;;;23.70;42.90;;;;;;5000168;28;20034;-43
2022/04/25 06:47:41;;;;;;;4.00;1.55;;;23.70;42.80;;;;;;4999926;28;20105;-42
2022/04/25 06:50:07;;;;;;;8.65;2.13;;;23.70;42.70;;;;;;4999234;28;20073;-42
2022/04/25 06:52:33;;;;;;;7.35;2.20;;;23.70;42.60;;;;;;4999637;28;20037;-42
2022/04/25 06:54:59;;;;;;;6.88;1.98;;;23.60;42.50;;;;;;5000074;28;20120;-43
2022/04/25 06:57:25;;;;;;;6.70;1.95;;;23.60;42.50;;;;;;4999058;28;20030;-43
2022/04/25 06:59:51;;;;;;;7.38;1.90;;;23.60;42.40;;;;;;4998672;28;20104;-42
2022/04/25 07:02:16;;;;;;;8.00;2.10;;;23.60;42.50;;;;;;4997631;28;20068;-43
2022/04/25 07:04:42;;;;;;;5.20;2.00;;;23.60;42.40;;;;;;5000285;28;20028;-42
2022/04/25 07:07:09;;;;;;;6.55;2.15;;;23.60;42.30;;;;;;5000083;28;20036;-42
2022/04/25 07:09:35;;;;;;;5.63;1.73;;;23.60;42.40;;;;;;4998329;28;20027;-42
2022/04/25 07:12:01;;;;;;;4.78;1.50;;;23.60;42.30;;;;;;4999283;28;20555;-42
2022/04/25 07:14:28;;;;;;;3.88;1.45;;;23.60;42.30;;;;;;4999702;28;20172;-43
2022/04/25 07:16:57;;;;;;;5.63;1.70;;;23.60;42.30;;;;;;4999864;28;20049;-43
2022/04/25 07:19:23;;;;;;;5.10;1.63;;;23.60;42.30;;;;;;4999504;28;20052;-42
2022/04/25 07:30:04;;;;;;;4.90;1.40;;;23.50;42.30;;;;;;4999280;28;20036;-42
2022/04/25 07:32:30;;;;;;;2.97;1.17;;;23.50;42.30;;;;;;4998873;28;20037;-43
2022/04/25 07:34:56;;;;;;;3.72;1.20;;;23.50;42.20;;;;;;4999325;28;20092;-42
2022/04/25 07:37:25;;;;;;;4.32;1.30;;;23.50;42.30;;;;;;4994312;28;20046;-42
2022/04/25 07:39:51;;;;;;;4.70;1.13;;;23.50;42.30;;;;;;4999222;28;20034;-42
2022/04/25 07:42:18;;;;;;;3.80;1.58;;;23.50;42.20;;;;;;4999007;28;20030;-42
2022/04/25 07:44:47;;;;;;;3.67;1.20;;;23.50;42.30;;;;;;4999370;28;20026;-42
2022/04/25 07:47:14;;;;;;;3.33;1.10;;;23.50;42.90;;;;;;4998792;28;20034;-43
2022/04/25 07:49:40;;;;;;;4.13;1.10;;;23.50;42.20;;;;;;4998965;28;20053;-43
2022/04/25 07:52:06;;;;;;;3.35;1.00;;;23.50;42.20;;;;;;4998497;28;20022;-43
2022/04/25 07:54:32;;;;;;;3.30;1.10;;;23.50;42.20;;;;;;4998911;28;20048;-42
2022/04/25 07:56:58;;;;;;;3.20;1.05;;;23.50;42.10;;;;;;4998894;28;20537;-42
2022/04/25 07:59:24;;;;;;;3.75;1.20;;;23.50;42.00;;;;;;4997245;28;20036;-42
2022/04/25 08:01:50;;;;;;;5.00;0.98;;;23.50;42.10;;;;;;4999142;28;20034;-43
2022/04/25 08:04:16;;;;;;;3.00;1.10;;;23.50;42.00;;;;;;5002813;28;20057;-43
2022/04/25 08:06:41;;;;;;;3.85;1.13;;;23.50;42.10;;;;;;5002091;28;20054;-43
2022/04/25 08:09:07;;;;;;;3.70;1.20;;;23.50;42.20;;;;;;5002806;28;20520;-43
2022/04/25 08:11:33;;;;;;;3.35;1.00;;;23.50;42.10;;;;;;5001795;28;20040;-43
2022/04/25 08:19:30;;;;;;;3.95;1.15;;;23.50;42.10;;;;;;5002225;28;20115;-43
2022/04/25 08:21:57;;;;;;;3.40;0.93;;;23.50;42.10;;;;;;5002007;28;20034;-43
2022/04/25 08:24:23;;;;;;;5.95;1.20;;;23.50;42.10;;;;;;5000499;28;20029;-43
2022/04/25 08:26:48;;;;;;;3.38;1.10;;;23.50;42.00;;;;;;5002084;28;20597;-42
2022/04/25 08:29:14;;;;;;;4.47;1.48;;;23.50;42.00;;;;;;4983670;28;20186;-42
2022/04/25 08:31:40;;;;;;;3.03;1.17;;;23.60;41.90;;;;;;4989965;28;20117;-43
2022/04/25 08:34:08;;;;;;;3.00;1.05;;;23.60;41.90;;;;;;5002423;28;20564;-43
2022/04/25 08:36:35;;;;;;;3.05;1.00;;;23.60;41.80;;;;;;5002249;28;20030;-42
2022/04/25 08:39:01;;;;;;;2.10;0.60;;;23.60;41.80;;;;;;4997703;28;20074;-42
2022/04/25 08:41:46;;;;;;;2.72;0.65;;;23.60;41.70;;;;;;5001681;28;20709;-43
2022/04/25 08:44:16;;;;;;;2.25;0.85;;;23.70;41.80;;;;;;5002206;28;20100;-42
2022/04/25 08:46:45;;;;;;;2.75;0.70;;;23.60;41.60;;;;;;5002227;28;20750;-43
2022/04/25 08:49:13;;;;;;;2.70;0.80;;;23.70;41.70;;;;;;5002139;28;20143;-42
2022/04/25 08:51:40;;;;;;;3.20;0.80;;;23.70;42.30;;;;;;5000409;28;20583;-42
2022/04/25 08:54:08;;;;;;;2.65;0.95;;;23.70;41.60;;;;;;5002131;28;20076;-42
2022/04/25 08:56:35;;;;;;;2.38;0.63;;;23.70;41.50;;;;;;5002143;28;20029;-42
2022/04/25 08:59:04;;;;;;;2.95;0.90;;;23.70;41.50;;;;;;5001750;28;20030;-43
2022/04/25 09:01:30;;;;;;;2.80;0.77;;;23.70;41.50;;;;;;4999795;28;20038;-43
2022/04/25 09:03:56;;;;;;;2.13;0.60;;;23.70;41.50;;;;;;5002112;28;20478;-42
2022/04/25 09:06:21;;;;;;;2.58;0.80;;;23.70;41.50;;;;;;5001698;28;20037;-42
2022/04/25 09:08:47;;;;;;;2.95;0.65;;;23.70;41.40;;;;;;5001879;28;20053;-43
2022/04/25 09:13:58;;;;;;;2.38;0.68;;;23.70;41.40;;;;;;5000786;28;20089;-42
2022/04/25 09:16:24;;;;;;;2.65;0.80;;;23.70;41.40;;;;;;5001066;28;20041;-42
2022/04/25 09:18:49;;;;;;;2.38;0.65;;;23.70;41.30;;;;;;5001801;28;20029;-42
2022/04/25 09:21:15;;;;;;;1.52;0.63;;;23.70;41.30;;;;;;5001020;28;20038;-43
2022/04/25 09:23:42;;;;;;;2.08;0.80;;;23.70;41.30;;;;;;5001653;28;20474;-42
2022/04/25 09:26:16;;;;;;;1.30;0.50;;;23.70;41.30;;;;;;5001223;28;20084;-42
2022/04/25 09:28:49;;;;;;;1.52;0.50;;;23.70;41.20;;;;;;5000999;28;20033;-43
2022/04/25 09:31:17;;;;;;;1.67;0.60;;;23.70;41.10;;;;;;5001094;28;20052;-42
2022/04/25 09:33:43;;;;;;;2.05;0.65;;;23.70;41.20;;;;;;5001534;28;20113;-43
2022/04/25 09:36:09;;;;;;;1.35;0.40;;;23.70;41.20;;;;;;5001482;28;20211;-42
2022/04/25 09:38:40;;;;;;;1.20;0.50;;;23.70;41.10;;;;;;4999319;28;20842;-42
2022/04/25 09:41:09;;;;;;;3.65;0.75;;;23.70;41.10;;;;;;4980605;28;20690;-42
2022/04/25 09:43:37;;;;;;;1.38;0.60;;;23.70;41.90;;;;;;4981366;28;20050;-42
2022/04/25 09:46:08;;;;;;;1.38;0.47;;;23.70;41.10;;;;;;4982448;28;20586;-42
2022/04/25 09:48:35;;;;;;;1.80;0.80;;;23.70;41.20;;;;;;5000504;28;20390;-42
2022/04/25 09:51:15;;;;;;;1.83;0.60;;;23.60;41.10;;;;;;4999676;28;20026;-42
2022/04/25 09:53:52;;;;;;;2.33;0.50;;;23.60;41.10;;;;;;5000650;28;20092;-43
2022/04/25 09:56:22;;;;;;;2.05;0.60;;;23.60;41.10;;;;;;5000011;28;20026;-43
2022/04/25 09:59:18;;;;;;;1.65;0.50;;;23.60;41.00;;;;;;5001182;28;20116;-43
2022/04/25 10:01:45;;;;;;;2.03;0.60;;;23.60;41.10;;;;;;4990515;28;20388;-42
2022/04/25 10:04:32;;;;;;;3.58;0.80;;;23.60;41.00;;;;;;5000803;28;20161;-42
2022/04/25 10:07:00;;;;;;;1.80;0.68;;;23.60;41.00;;;;;;5000174;28;20145;-43
2022/04/25 10:09:30;;;;;;;2.03;0.50;;;23.60;41.00;;;;;;5000082;28;20056;-43
2022/04/25 10:11:59;;;;;;;1.73;0.65;;;23.60;41.00;;;;;;4999806;28;20025;-42
2022/04/25 10:14:26;;;;;;;1.67;0.63;;;23.60;41.00;;;;;;5000097;28;20057;-42
2022/04/25 10:16:56;;;;;;;1.38;0.60;;;23.60;41.10;;;;;;4999751;28;20397;-43
2022/04/25 10:19:26;;;;;;;1.02;0.43;;;23.60;41.00;;;;;;4999948;28;20029;-43
2022/04/25 10:21:53;;;;;;;2.28;0.60;;;23.60;41.00;;;;;;5000243;28;20525;-43
2022/04/25 10:24:20;;;;;;;2.00;0.50;;;23.60;41.00;;;;;;4999854;28;20448;-42
2022/04/25 10:26:47;;;;;;;2.03;0.60;;;23.60;41.00;;;;;;4999934;28;20041;-42
2022/04/25 10:29:31;;;;;;;1.33;0.50;;;23.60;41.00;;;;;;4999804;28;20033;-42
2022/04/25 10:31:59;;;;;;;1.52;0.52;;;23.60;41.00;;;;;;4999701;28;20088;-42
2022/04/25 10:34:51;;;;;;;1.35;0.40;;;23.60;41.00;;;;;;4998010;28;20029;-42
2022/04/25 10:37:31;;;;;;;2.05;0.60;;;23.60;41.10;;;;;;4999292;28;20080;-42
2022/04/25 10:39:58;;;;;;;0.88;0.40;;;23.60;41.00;;;;;;4995174;28;20040;-42
2022/04/25 10:45:09;;;;;;;2.25;0.73;;;23.60;41.00;;;;;;4997974;28;20053;-42
2022/04/25 10:47:35;;;;;;;0.85;0.40;;;23.60;40.90;;;;;;4998230;28;20045;-42
2022/04/25 10:50:04;;;;;;;1.13;0.40;;;23.50;41.00;;;;;;4998590;28;20226;-42
2022/04/25 10:52:33;;;;;;;1.70;0.50;;;23.60;41.10;;;;;;4997804;28;20022;-42
2022/04/25 10:55:30;;;;;;;1.63;0.50;;;23.60;41.00;;;;;;4998830;28;20309;-43
2022/04/25 10:58:05;;;;;;;1.52;0.57;;;23.50;41.00;;;;;;4999204;28;20482;-43
2022/04/25 11:00:36;;;;;;;1.40;0.50;;;23.50;41.00;;;;;;4999386;28;20033;-42
2022/04/25 11:03:12;;;;;;;1.20;0.50;;;23.50;41.00;;;;;;4998414;28;20044;-43
2022/04/25 11:05:49;;;;;;;1.13;0.40;;;23.50;40.90;;;;;;4999452;28;20030;-42
2022/04/25 11:08:24;;;;;;;2.05;0.40;;;23.50;40.90;;;;;;4999630;28;20030;-43
2022/04/25 11:11:01;;;;;;;1.08;0.43;;;23.60;41.00;;;;;;4999762;28;20030;-42
2022/04/25 11:13:33;;;;;;;1.73;0.50;;;23.60;41.10;;;;;;4999162;28;20030;-42
2022/04/25 11:16:25;;;;;;;0.93;0.43;;;23.60;41.00;;;;;;4999576;28;20418;-43
2022/04/25 11:19:11;;;;;;;0.63;0.22;;;23.60;41.00;;;;;;4979539;28;20102;-42
2022/04/25 11:21:47;;;;;;;2.10;0.50;;;23.60;41.10;;;;;;4979370;28;20561;-43
2022/04/25 11:24:33;;;;;;;1.23;0.52;;;23.60;41.00;;;;;;4979874;28;20030;-41
2022/04/25 11:27:00;;;;;;;1.58;0.60;;;23.60;41.10;;;;;;4979813;28;20039;-42
2022/04/25 11:29:27;;;;;;;1.05;0.40;;;23.60;41.00;;;;;;4998740;28;20030;-43
2022/04/25 11:32:21;;;;;;;1.10;0.40;;;23.70;41.10;;;;;;4998574;28;20030;-43
2022/04/25 11:34:47;;;;;;;1.05;0.40;;;23.70;41.10;;;;;;4999158;28;20652;-42
2022/04/25 11:37:13;;;;;;;0.95;0.40;;;23.70;41.00;;;;;;4998006;28;20670;-42
2022/04/25 11:39:51;;;;;;;1.20;0.60;;;23.70;40.90;;;;;;4997454;28;20057;-42
2022/04/25 11:42:18;;;;;;;2.10;0.55;;;23.70;40.90;;;;;;4996703;28;20270;-42
2022/04/25 11:44:44;;;;;;;1.05;0.40;;;23.70;40.90;;;;;;4999338;28;20429;-43
2022/04/25 11:47:10;;;;;;;0.75;0.30;;;23.70;40.80;;;;;;4998802;28;20115;-42
2022/04/25 11:49:37;;;;;;;1.65;0.47;;;23.70;40.90;;;;;;4998575;28;20800;-43
2022/04/25 11:52:12;;;;;;;1.33;0.45;;;23.70;40.80;;;;;;4998748;28;20026;-42
2022/04/25 11:54:40;;;;;;;2.38;0.80;;;23.80;40.80;;;;;;4997195;28;20040;-42
2022/04/25 11:57:06;;;;;;;1.63;0.70;;;23.70;40.90;;;;;;4998725;28;20026;-43
2022/04/25 11:59:32;;;;;;;2.03;0.50;;;23.70;40.70;;;;;;4997773;28;20029;-42
2022/04/25 12:01:58;;;;;;;2.95;0.60;;;23.70;40.70;;;;;;4997642;28;20038;-42
2022/04/25 12:04:26;;;;;;;1.52;0.40;;;23.80;40.70;;;;;;4998606;28;20026;-42
2022/04/25 12:07:01;;;;;;;0.80;0.40;;;23.70;40.80;;;;;;4998488;28;20045;-42
2022/04/25 12:15:36;;;;;;;1.05;0.50;;;23.70;40.60;;;;;;4998566;28;20080;-42
2022/04/25 12:18:11;;;;;;;1.40;0.40;;;23.80;40.70;;;;;;4998827;28;20449;-42
2022/04/25 12:20:39;;;;;;;1.63;0.60;;;23.70;40.70;;;;;;4998648;28;20048;-42
2022/04/25 12:23:05;;;;;;;2.03;0.60;;;23.80;40.70;;;;;;4998779;28;20367;-42
2022/04/25 12:25:33;;;;;;;0.75;0.40;;;23.80;40.70;;;;;;4998295;28;20026;-43
2022/04/25 12:28:04;;;;;;;1.20;0.70;;;23.80;40.60;;;;;;4998929;28;20155;-43
2022/04/25 12:30:32;;;;;;;1.10;0.35;;;23.80;40.50;;;;;;4998303;28;20022;-42
2022/04/25 12:33:13;;;;;;;1.10;0.50;;;23.80;40.60;;;;;;4998162;28;20038;-42
2022/04/25 12:35:40;;;;;;;1.15;0.50;;;23.70;40.50;;;;;;4998519;28;20030;-42
2022/04/25 12:38:07;;;;;;;1.75;0.40;;;23.70;40.40;;;;;;4998743;28;20548;-42
2022/04/25 12:40:53;;;;;;;1.42;0.32;;;23.70;40.40;;;;;;4997546;28;20164;-43
2022/04/25 12:43:42;;;;;;;1.50;0.50;;;23.70;41.10;;;;;;4996301;28;20022;-43
2022/04/25 12:46:08;;;;;;;0.98;0.40;;;23.70;40.40;;;;;;4998677;28;20026;-42
2022/04/25 12:48:57;;;;;;;1.05;0.40;;;23.70;40.40;;;;;;4999170;28;20092;-43
2022/04/25 12:51:45;;;;;;;1.20;0.40;;;23.70;40.40;;;;;;5001332;28;20029;-42
2022/04/25 12:54:31;;;;;;;1.08;0.40;;;23.70;40.40;;;;;;5001327;28;20105;-42
2022/04/25 12:57:20;;;;;;;0.70;0.40;;;23.70;40.50;;;;;;5001713;28;20425;-42
2022/04/25 12:59:57;;;;;;;1.35;0.50;;;23.70;40.60;;;;;;5001637;28;20529;-43
2022/04/25 13:02:39;;;;;;;0.80;0.40;;;23.70;40.50;;;;;;4999618;28;20065;-42
2022/04/25 13:05:09;;;;;;;1.00;0.47;;;23.70;40.60;;;;;;5001776;28;20301;-43
2022/04/25 13:07:38;;;;;;;1.88;0.40;;;23.70;40.50;;;;;;5000819;28;20384;-43
2022/04/25 13:10:15;;;;;;;1.42;0.50;;;23.70;40.60;;;;;;5001337;28;20237;-42
2022/04/25 13:12:43;;;;;;;1.00;0.50;;;23.70;40.70;;;;;;5000788;28;20029;-42
2022/04/25 13:15:12;;;;;;;1.08;0.50;;;23.70;40.80;;;;;;5001225;28;20125;-43
2022/04/25 13:17:39;;;;;;;1.30;0.50;;;23.70;40.80;;;;;;5000947;28;20030;-42
2022/04/25 13:20:06;;;;;;;1.50;0.50;;;23.70;40.90;;;;;;5001466;28;20026;-42
2022/04/25 13:22:33;;;;;;;1.30;0.60;;;23.70;40.80;;;;;;5000701;28;20042;-42
2022/04/25 13:24:59;;;;;;;1.02;0.40;;;23.70;40.80;;;;;;5001090;28;20703;-42
2022/04/25 13:27:25;;;;;;;1.10;0.57;;;23.80;40.60;;;;;;5001039;28;20022;-43
2022/04/25 13:29:52;;;;;;;1.27;0.70;;;23.70;40.70;;;;;;5000740;28;20049;-43
2022/04/25 13:32:18;;;;;;;1.23;0.40;;;23.80;40.60;;;;;;5000600;28;20286;-43